sensor_id;sensor_type;location;lat;lon;timestamp;temperature;humidity
9544;DHT22;30418;51.45933468;7.33152330;2024-03-25T00:00:14;9.60;67.70
9544;DHT22;30418;51.45933468;7.33152330;2024-03-25T00:02:44;9.60;67.80
9544;DHT22;30418;51.45933468;7.33152330;2024-03-25T00:05:13;9.60;67.70
9544;DHT22;30418;51.45933468;7.33152330;2024-03-25T00:07:41;9.60;67.80
9544;DHT22;30418;51.45933468;7.33152330;2024-03-25T00:10:08;9.60;67.60
9544;DHT22;30418;51.45933468;7.33152330;2024-03-25T00:12:36;9.60;67.60
9544;DHT22;30418;51.45933468;7.33152330;2024-03-25T00:15:04;9.60;67.70
9544;DHT22;30418;51.45933468;7.33152330;2024-03-25T00:17:31;9.60;67.70
9544;DHT22;30418;51.45933468;7.33152330;2024-03-25T00:19:59;9.60;67.70
9544;DHT22;30418;51.45933468;7.33152330;2024-03-25T00:22:26;9.60;67.50
9544;DHT22;30418;51.45933468;7.33152330;2024-03-25T00:24:54;9.60;67.40
9544;DHT22;30418;51.45933468;7.33152330;2024-03-25T00:27:21;9.60;67.30
9544;DHT22;30418;51.45933468;7.33152330;2024-03-25T00:29:48;9.60;67.40
9544;DHT22;30418;51.45933468;7.33152330;2024-03-25T00:32:15;9.60;67.40
9544;DHT22;30418;51.45933468;7.33152330;2024-03-25T00:34:43;9.60;67.40
9544;DHT22;30418;51.45933468;7.33152330;2024-03-25T00:37:09;9.60;67.40
9544;DHT22;30418;51.45933468;7.33152330;2024-03-25T00:39:38;9.60;67.40
9544;DHT22;30418;51.45933468;7.33152330;2024-03-25T00:42:05;9.50;67.40
9544;DHT22;30418;51.45933468;7.33152330;2024-03-25T00:44:33;9.50;67.40
9544;DHT22;30418;51.45933468;7.33152330;2024-03-25T00:47:00;9.50;67.20
9544;DHT22;30418;51.45933468;7.33152330;2024-03-25T00:49:28;9.50;67.30
9544;DHT22;30418;51.45933468;7.33152330;2024-03-25T00:51:55;9.50;67.30
9544;DHT22;30418;51.45933468;7.33152330;2024-03-25T00:54:24;9.50;67.20
9544;DHT22;30418;51.45933468;7.33152330;2024-03-25T00:56:52;9.50;67.30
9544;DHT22;30418;51.45933468;7.33152330;2024-03-25T00:59:19;9.50;67.50
9544;DHT22;30418;51.45933468;7.33152330;2024-03-25T01:01:46;9.40;67.40
9544;DHT22;30418;51.45933468;7.33152330;2024-03-25T01:04:14;9.40;68.30
9544;DHT22;30418;51.45933468;7.33152330;2024-03-25T01:06:40;9.50;67.70
9544;DHT22;30418;51.45933468;7.33152330;2024-03-25T01:09:08;9.50;67.70
9544;DHT22;30418;51.45933468;7.33152330;2024-03-25T01:11:36;9.40;67.60
9544;DHT22;30418;51.45933468;7.33152330;2024-03-25T01:14:09;9.40;67.70
9544;DHT22;30418;51.45933468;7.33152330;2024-03-25T01:16:36;9.50;67.80
9544;DHT22;30418;51.45933468;7.33152330;2024-03-25T01:19:04;9.40;67.70
9544;DHT22;30418;51.45933468;7.33152330;2024-03-25T01:21:31;9.50;67.60
9544;DHT22;30418;51.45933468;7.33152330;2024-03-25T01:23:59;9.40;67.50
9544;DHT22;30418;51.45933468;7.33152330;2024-03-25T01:26:26;9.40;67.60
9544;DHT22;30418;51.45933468;7.33152330;2024-03-25T01:28:55;9.40;67.60
9544;DHT22;30418;51.45933468;7.33152330;2024-03-25T01:31:22;9.40;67.60
9544;DHT22;30418;51.45933468;7.33152330;2024-03-25T01:33:50;9.40;67.60
9544;DHT22;30418;51.45933468;7.33152330;2024-03-25T01:36:17;9.40;67.70
9544;DHT22;30418;51.45933468;7.33152330;2024-03-25T01:38:44;9.40;67.60
9544;DHT22;30418;51.45933468;7.33152330;2024-03-25T01:41:12;9.40;67.60
9544;DHT22;30418;51.45933468;7.33152330;2024-03-25T01:43:42;9.40;67.60
9544;DHT22;30418;51.45933468;7.33152330;2024-03-25T01:46:09;9.40;67.50
9544;DHT22;30418;51.45933468;7.33152330;2024-03-25T01:48:38;9.30;67.40
9544;DHT22;30418;51.45933468;7.33152330;2024-03-25T01:51:06;9.30;67.40
9544;DHT22;30418;51.45933468;7.33152330;2024-03-25T01:53:33;9.30;67.50
9544;DHT22;30418;51.45933468;7.33152330;2024-03-25T01:56:01;9.30;67.60
9544;DHT22;30418;51.45933468;7.33152330;2024-03-25T01:58:29;9.30;67.60
9544;DHT22;30418;51.45933468;7.33152330;2024-03-25T02:00:58;9.30;67.70
9544;DHT22;30418;51.45933468;7.33152330;2024-03-25T02:03:28;9.30;67.80
9544;DHT22;30418;51.45933468;7.33152330;2024-03-25T02:05:59;9.30;68.30
9544;DHT22;30418;51.45933468;7.33152330;2024-03-25T02:08:29;9.30;67.90
9544;DHT22;30418;51.45933468;7.33152330;2024-03-25T02:10:58;9.30;67.80
9544;DHT22;30418;51.45933468;7.33152330;2024-03-25T02:13:25;9.40;68.00
9544;DHT22;30418;51.45933468;7.33152330;2024-03-25T02:15:53;9.40;67.90
9544;DHT22;30418;51.45933468;7.33152330;2024-03-25T02:18:21;9.40;67.90
9544;DHT22;30418;51.45933468;7.33152330;2024-03-25T02:20:47;9.40;67.80
9544;DHT22;30418;51.45933468;7.33152330;2024-03-25T02:23:16;9.40;67.70
9544;DHT22;30418;51.45933468;7.33152330;2024-03-25T02:28:16;9.40;67.70
9544;DHT22;30418;51.45933468;7.33152330;2024-03-25T02:30:43;9.40;67.70
9544;DHT22;30418;51.45933468;7.33152330;2024-03-25T02:33:11;9.40;67.70
9544;DHT22;30418;51.45933468;7.33152330;2024-03-25T02:35:40;9.40;67.60
9544;DHT22;30418;51.45933468;7.33152330;2024-03-25T02:38:09;9.40;67.60
9544;DHT22;30418;51.45933468;7.33152330;2024-03-25T02:40:36;9.40;67.60
9544;DHT22;30418;51.45933468;7.33152330;2024-03-25T02:43:06;9.30;67.60
9544;DHT22;30418;51.45933468;7.33152330;2024-03-25T02:45:33;9.30;67.50
9544;DHT22;30418;51.45933468;7.33152330;2024-03-25T02:48:00;9.30;67.50
9544;DHT22;30418;51.45933468;7.33152330;2024-03-25T02:50:27;9.30;67.40
9544;DHT22;30418;51.45933468;7.33152330;2024-03-25T02:52:55;9.30;67.50
9544;DHT22;30418;51.45933468;7.33152330;2024-03-25T02:55:22;9.30;67.50
9544;DHT22;30418;51.45933468;7.33152330;2024-03-25T02:57:49;9.30;67.60
9544;DHT22;30418;51.45933468;7.33152330;2024-03-25T03:00:18;9.30;67.60
9544;DHT22;30418;51.45933468;7.33152330;2024-03-25T03:02:45;9.30;67.50
9544;DHT22;30418;51.45933468;7.33152330;2024-03-25T03:05:12;9.30;67.40
9544;DHT22;30418;51.45933468;7.33152330;2024-03-25T03:07:40;9.30;67.40
9544;DHT22;30418;51.45933468;7.33152330;2024-03-25T03:10:07;9.30;67.40
9544;DHT22;30418;51.45933468;7.33152330;2024-03-25T03:12:36;9.30;67.50
9544;DHT22;30418;51.45933468;7.33152330;2024-03-25T03:15:03;9.20;67.30
9544;DHT22;30418;51.45933468;7.33152330;2024-03-25T03:17:32;9.30;67.50
9544;DHT22;30418;51.45933468;7.33152330;2024-03-25T03:19:59;9.30;67.50
9544;DHT22;30418;51.45933468;7.33152330;2024-03-25T03:22:26;9.30;67.60
9544;DHT22;30418;51.45933468;7.33152330;2024-03-25T03:24:53;9.30;67.50
9544;DHT22;30418;51.45933468;7.33152330;2024-03-25T03:27:20;9.30;67.50
9544;DHT22;30418;51.45933468;7.33152330;2024-03-25T03:29:47;9.30;67.50
9544;DHT22;30418;51.45933468;7.33152330;2024-03-25T03:32:15;9.20;67.40
9544;DHT22;30418;51.45933468;7.33152330;2024-03-25T03:34:43;9.20;67.20
9544;DHT22;30418;51.45933468;7.33152330;2024-03-25T03:37:11;9.20;67.40
9544;DHT22;30418;51.45933468;7.33152330;2024-03-25T03:39:37;9.20;67.30
9544;DHT22;30418;51.45933468;7.33152330;2024-03-25T03:42:06;9.20;67.30
9544;DHT22;30418;51.45933468;7.33152330;2024-03-25T03:44:32;9.20;67.30
9544;DHT22;30418;51.45933468;7.33152330;2024-03-25T03:47:00;9.20;67.30
9544;DHT22;30418;51.45933468;7.33152330;2024-03-25T03:49:26;9.20;67.50
9544;DHT22;30418;51.45933468;7.33152330;2024-03-25T03:51:55;9.20;67.20
9544;DHT22;30418;51.45933468;7.33152330;2024-03-25T03:54:23;9.20;67.20
9544;DHT22;30418;51.45933468;7.33152330;2024-03-25T03:56:50;9.20;67.10
9544;DHT22;30418;51.45933468;7.33152330;2024-03-25T03:59:17;9.20;67.20
9544;DHT22;30418;51.45933468;7.33152330;2024-03-25T04:01:44;9.20;67.20
9544;DHT22;30418;51.45933468;7.33152330;2024-03-25T04:04:11;9.20;67.30
9544;DHT22;30418;51.45933468;7.33152330;2024-03-25T04:06:38;9.10;67.10
9544;DHT22;30418;51.45933468;7.33152330;2024-03-25T04:09:08;9.10;67.10
9544;DHT22;30418;51.45933468;7.33152330;2024-03-25T04:11:36;9.10;67.20
9544;DHT22;30418;51.45933468;7.33152330;2024-03-25T04:14:03;9.10;67.10
9544;DHT22;30418;51.45933468;7.33152330;2024-03-25T04:16:31;9.10;67.10
9544;DHT22;30418;51.45933468;7.33152330;2024-03-25T04:18:58;9.10;67.10
9544;DHT22;30418;51.45933468;7.33152330;2024-03-25T04:21:26;9.10;67.20
9544;DHT22;30418;51.45933468;7.33152330;2024-03-25T04:23:53;9.10;67.20
9544;DHT22;30418;51.45933468;7.33152330;2024-03-25T04:26:22;9.10;67.20
9544;DHT22;30418;51.45933468;7.33152330;2024-03-25T04:28:48;9.10;67.20
9544;DHT22;30418;51.45933468;7.33152330;2024-03-25T04:31:16;9.10;67.20
9544;DHT22;30418;51.45933468;7.33152330;2024-03-25T04:33:44;9.10;67.10
9544;DHT22;30418;51.45933468;7.33152330;2024-03-25T04:36:10;9.10;67.10
9544;DHT22;30418;51.45933468;7.33152330;2024-03-25T04:38:38;9.10;67.10
9544;DHT22;30418;51.45933468;7.33152330;2024-03-25T04:41:05;9.10;67.00
9544;DHT22;30418;51.45933468;7.33152330;2024-03-25T04:43:33;9.10;67.00
9544;DHT22;30418;51.45933468;7.33152330;2024-03-25T04:46:00;9.00;67.00
9544;DHT22;30418;51.45933468;7.33152330;2024-03-25T04:48:27;9.10;67.00
9544;DHT22;30418;51.45933468;7.33152330;2024-03-25T04:50:54;9.10;67.00
9544;DHT22;30418;51.45933468;7.33152330;2024-03-25T04:53:21;9.00;66.90
9544;DHT22;30418;51.45933468;7.33152330;2024-03-25T04:55:47;9.00;66.80
9544;DHT22;30418;51.45933468;7.33152330;2024-03-25T04:58:14;9.00;66.70
9544;DHT22;30418;51.45933468;7.33152330;2024-03-25T05:00:42;9.00;66.70
9544;DHT22;30418;51.45933468;7.33152330;2024-03-25T05:03:08;9.00;66.70
9544;DHT22;30418;51.45933468;7.33152330;2024-03-25T05:05:35;9.00;66.70
9544;DHT22;30418;51.45933468;7.33152330;2024-03-25T05:08:02;9.00;67.60
9544;DHT22;30418;51.45933468;7.33152330;2024-03-25T05:10:29;9.00;66.70
9544;DHT22;30418;51.45933468;7.33152330;2024-03-25T05:12:55;9.00;66.70
9544;DHT22;30418;51.45933468;7.33152330;2024-03-25T05:15:22;8.90;66.60
9544;DHT22;30418;51.45933468;7.33152330;2024-03-25T05:17:56;8.90;66.60
9544;DHT22;30418;51.45933468;7.33152330;2024-03-25T05:20:22;8.90;66.70
9544;DHT22;30418;51.45933468;7.33152330;2024-03-25T05:22:49;8.90;66.70
9544;DHT22;30418;51.45933468;7.33152330;2024-03-25T05:25:16;8.90;66.80
9544;DHT22;30418;51.45933468;7.33152330;2024-03-25T05:27:43;8.90;66.80
9544;DHT22;30418;51.45933468;7.33152330;2024-03-25T05:30:11;8.90;66.80
9544;DHT22;30418;51.45933468;7.33152330;2024-03-25T05:32:38;8.90;66.90
9544;DHT22;30418;51.45933468;7.33152330;2024-03-25T05:35:07;8.90;66.80
9544;DHT22;30418;51.45933468;7.33152330;2024-03-25T05:37:34;8.90;67.00
9544;DHT22;30418;51.45933468;7.33152330;2024-03-25T05:40:01;8.90;66.90
9544;DHT22;30418;51.45933468;7.33152330;2024-03-25T05:42:27;8.90;67.00
9544;DHT22;30418;51.45933468;7.33152330;2024-03-25T05:44:54;8.90;66.90
9544;DHT22;30418;51.45933468;7.33152330;2024-03-25T05:47:22;8.90;66.90
9544;DHT22;30418;51.45933468;7.33152330;2024-03-25T05:49:49;8.90;66.80
9544;DHT22;30418;51.45933468;7.33152330;2024-03-25T05:52:17;8.90;66.80
9544;DHT22;30418;51.45933468;7.33152330;2024-03-25T05:54:43;8.90;66.80
9544;DHT22;30418;51.45933468;7.33152330;2024-03-25T05:57:10;8.90;66.80
9544;DHT22;30418;51.45933468;7.33152330;2024-03-25T05:59:37;8.90;66.70
9544;DHT22;30418;51.45933468;7.33152330;2024-03-25T06:02:04;8.90;66.70
9544;DHT22;30418;51.45933468;7.33152330;2024-03-25T06:04:31;8.90;66.70
9544;DHT22;30418;51.45933468;7.33152330;2024-03-25T06:06:58;8.90;66.80
9544;DHT22;30418;51.45933468;7.33152330;2024-03-25T06:09:27;8.90;66.70
9544;DHT22;30418;51.45933468;7.33152330;2024-03-25T06:11:53;8.90;66.70
9544;DHT22;30418;51.45933468;7.33152330;2024-03-25T06:14:20;8.90;66.80
9544;DHT22;30418;51.45933468;7.33152330;2024-03-25T06:16:47;8.90;66.90
9544;DHT22;30418;51.45933468;7.33152330;2024-03-25T06:19:14;8.90;66.90
9544;DHT22;30418;51.45933468;7.33152330;2024-03-25T06:21:41;8.80;66.80
9544;DHT22;30418;51.45933468;7.33152330;2024-03-25T06:24:07;8.90;67.00
9544;DHT22;30418;51.45933468;7.33152330;2024-03-25T06:26:36;8.90;67.00
9544;DHT22;30418;51.45933468;7.33152330;2024-03-25T06:29:03;8.90;67.10
9544;DHT22;30418;51.45933468;7.33152330;2024-03-25T06:31:29;8.90;67.10
9544;DHT22;30418;51.45933468;7.33152330;2024-03-25T06:34:15;8.90;67.10
9544;DHT22;30418;51.45933468;7.33152330;2024-03-25T06:36:42;8.90;67.10
9544;DHT22;30418;51.45933468;7.33152330;2024-03-25T06:39:09;8.90;67.10
9544;DHT22;30418;51.45933468;7.33152330;2024-03-25T06:41:37;9.00;67.30
9544;DHT22;30418;51.45933468;7.33152330;2024-03-25T06:44:04;8.90;68.10
9544;DHT22;30418;51.45933468;7.33152330;2024-03-25T06:46:31;9.00;67.30
9544;DHT22;30418;51.45933468;7.33152330;2024-03-25T06:48:58;9.00;67.30
9544;DHT22;30418;51.45933468;7.33152330;2024-03-25T06:51:26;9.00;67.40
9544;DHT22;30418;51.45933468;7.33152330;2024-03-25T06:53:53;9.00;67.40
9544;DHT22;30418;51.45933468;7.33152330;2024-03-25T06:56:20;9.10;67.50
9544;DHT22;30418;51.45933468;7.33152330;2024-03-25T06:58:48;9.10;67.50
9544;DHT22;30418;51.45933468;7.33152330;2024-03-25T07:01:15;9.10;67.60
9544;DHT22;30418;51.45933468;7.33152330;2024-03-25T07:03:42;9.10;67.60
9544;DHT22;30418;51.45933468;7.33152330;2024-03-25T07:06:09;9.10;67.60
9544;DHT22;30418;51.45933468;7.33152330;2024-03-25T07:08:35;9.10;67.60
9544;DHT22;30418;51.45933468;7.33152330;2024-03-25T07:11:02;9.10;67.60
9544;DHT22;30418;51.45933468;7.33152330;2024-03-25T07:13:30;9.20;67.70
9544;DHT22;30418;51.45933468;7.33152330;2024-03-25T07:15:59;9.10;68.40
9544;DHT22;30418;51.45933468;7.33152330;2024-03-25T07:18:25;9.20;67.70
9544;DHT22;30418;51.45933468;7.33152330;2024-03-25T07:20:52;9.20;67.70
9544;DHT22;30418;51.45933468;7.33152330;2024-03-25T07:23:19;9.20;67.80
9544;DHT22;30418;51.45933468;7.33152330;2024-03-25T07:25:46;9.20;67.70
9544;DHT22;30418;51.45933468;7.33152330;2024-03-25T07:28:13;9.30;67.80
9544;DHT22;30418;51.45933468;7.33152330;2024-03-25T07:30:40;9.30;67.80
9544;DHT22;30418;51.45933468;7.33152330;2024-03-25T07:33:08;9.30;67.80
9544;DHT22;30418;51.45933468;7.33152330;2024-03-25T07:35:35;9.30;67.80
9544;DHT22;30418;51.45933468;7.33152330;2024-03-25T07:38:02;9.40;67.90
9544;DHT22;30418;51.45933468;7.33152330;2024-03-25T07:40:29;9.30;67.80
9544;DHT22;30418;51.45933468;7.33152330;2024-03-25T07:42:56;9.40;68.00
9544;DHT22;30418;51.45933468;7.33152330;2024-03-25T07:45:23;9.40;67.90
9544;DHT22;30418;51.45933468;7.33152330;2024-03-25T07:47:50;9.40;67.90
9544;DHT22;30418;51.45933468;7.33152330;2024-03-25T07:50:18;9.40;68.00
9544;DHT22;30418;51.45933468;7.33152330;2024-03-25T07:52:44;9.50;68.00
9544;DHT22;30418;51.45933468;7.33152330;2024-03-25T07:55:11;9.50;68.00
9544;DHT22;30418;51.45933468;7.33152330;2024-03-25T07:57:39;9.50;67.90
9544;DHT22;30418;51.45933468;7.33152330;2024-03-25T08:00:07;9.50;67.90
9544;DHT22;30418;51.45933468;7.33152330;2024-03-25T08:02:40;9.60;68.00
9544;DHT22;30418;51.45933468;7.33152330;2024-03-25T08:05:07;9.60;68.00
9544;DHT22;30418;51.45933468;7.33152330;2024-03-25T08:07:36;9.60;68.00
9544;DHT22;30418;51.45933468;7.33152330;2024-03-25T08:10:03;9.60;68.00
9544;DHT22;30418;51.45933468;7.33152330;2024-03-25T08:12:30;9.70;68.10
9544;DHT22;30418;51.45933468;7.33152330;2024-03-25T08:14:56;9.70;68.10
9544;DHT22;30418;51.45933468;7.33152330;2024-03-25T08:17:23;9.80;68.10
9544;DHT22;30418;51.45933468;7.33152330;2024-03-25T08:19:50;9.80;68.20
9544;DHT22;30418;51.45933468;7.33152330;2024-03-25T08:22:17;9.80;68.10
9544;DHT22;30418;51.45933468;7.33152330;2024-03-25T08:24:45;9.90;68.20
9544;DHT22;30418;51.45933468;7.33152330;2024-03-25T08:27:12;10.00;67.10
9544;DHT22;30418;51.45933468;7.33152330;2024-03-25T08:29:38;10.10;67.40
9544;DHT22;30418;51.45933468;7.33152330;2024-03-25T08:32:06;10.10;67.30
9544;DHT22;30418;51.45933468;7.33152330;2024-03-25T08:34:32;10.20;67.30
9544;DHT22;30418;51.45933468;7.33152330;2024-03-25T08:36:59;10.20;67.20
9544;DHT22;30418;51.45933468;7.33152330;2024-03-25T08:39:26;10.30;67.20
9544;DHT22;30418;51.45933468;7.33152330;2024-03-25T08:41:54;10.40;67.10
9544;DHT22;30418;51.45933468;7.33152330;2024-03-25T08:44:20;10.40;66.80
9544;DHT22;30418;51.45933468;7.33152330;2024-03-25T08:46:49;10.50;66.60
9544;DHT22;30418;51.45933468;7.33152330;2024-03-25T08:49:16;10.50;66.30
9544;DHT22;30418;51.45933468;7.33152330;2024-03-25T08:51:43;10.50;65.90
9544;DHT22;30418;51.45933468;7.33152330;2024-03-25T08:54:10;10.50;65.70
9544;DHT22;30418;51.45933468;7.33152330;2024-03-25T08:56:36;10.50;65.50
9544;DHT22;30418;51.45933468;7.33152330;2024-03-25T08:59:04;10.50;65.50
9544;DHT22;30418;51.45933468;7.33152330;2024-03-25T09:01:31;10.50;65.50
9544;DHT22;30418;51.45933468;7.33152330;2024-03-25T09:03:58;10.50;65.50
9544;DHT22;30418;51.45933468;7.33152330;2024-03-25T09:06:25;10.50;65.50
9544;DHT22;30418;51.45933468;7.33152330;2024-03-25T09:08:51;10.60;65.60
9544;DHT22;30418;51.45933468;7.33152330;2024-03-25T09:11:37;10.60;65.60
9544;DHT22;30418;51.45933468;7.33152330;2024-03-25T09:14:05;10.70;65.60
9544;DHT22;30418;51.45933468;7.33152330;2024-03-25T09:16:32;10.70;65.50
9544;DHT22;30418;51.45933468;7.33152330;2024-03-25T09:18:58;10.70;65.40
9544;DHT22;30418;51.45933468;7.33152330;2024-03-25T09:21:25;10.70;65.00
9544;DHT22;30418;51.45933468;7.33152330;2024-03-25T09:23:52;10.80;65.10
9544;DHT22;30418;51.45933468;7.33152330;2024-03-25T09:26:19;10.80;65.00
9544;DHT22;30418;51.45933468;7.33152330;2024-03-25T09:28:46;10.80;64.80
9544;DHT22;30418;51.45933468;7.33152330;2024-03-25T09:31:14;10.80;64.40
9544;DHT22;30418;51.45933468;7.33152330;2024-03-25T09:33:42;10.80;64.20
9544;DHT22;30418;51.45933468;7.33152330;2024-03-25T09:36:09;10.90;64.40
9544;DHT22;30418;51.45933468;7.33152330;2024-03-25T09:38:37;10.90;64.70
9544;DHT22;30418;51.45933468;7.33152330;2024-03-25T09:41:04;11.00;65.00
9544;DHT22;30418;51.45933468;7.33152330;2024-03-25T09:43:33;11.00;65.10
9544;DHT22;30418;51.45933468;7.33152330;2024-03-25T09:46:09;11.10;65.20
9544;DHT22;30418;51.45933468;7.33152330;2024-03-25T09:48:38;11.20;65.20
9544;DHT22;30418;51.45933468;7.33152330;2024-03-25T09:51:06;11.30;64.90
9544;DHT22;30418;51.45933468;7.33152330;2024-03-25T09:53:33;11.40;64.80
9544;DHT22;30418;51.45933468;7.33152330;2024-03-25T09:56:00;11.50;64.50
9544;DHT22;30418;51.45933468;7.33152330;2024-03-25T09:58:28;11.60;64.50
9544;DHT22;30418;51.45933468;7.33152330;2024-03-25T10:00:56;11.60;64.00
9544;DHT22;30418;51.45933468;7.33152330;2024-03-25T10:03:23;11.70;63.70
9544;DHT22;30418;51.45933468;7.33152330;2024-03-25T10:05:52;11.70;63.70
9544;DHT22;30418;51.45933468;7.33152330;2024-03-25T10:08:20;11.70;63.50
9544;DHT22;30418;51.45933468;7.33152330;2024-03-25T10:10:47;11.80;63.30
9544;DHT22;30418;51.45933468;7.33152330;2024-03-25T10:13:13;11.80;63.20
9544;DHT22;30418;51.45933468;7.33152330;2024-03-25T10:15:40;11.90;63.20
9544;DHT22;30418;51.45933468;7.33152330;2024-03-25T10:18:07;11.90;62.90
9544;DHT22;30418;51.45933468;7.33152330;2024-03-25T10:20:34;12.00;62.20
9544;DHT22;30418;51.45933468;7.33152330;2024-03-25T10:23:02;12.00;62.10
9544;DHT22;30418;51.45933468;7.33152330;2024-03-25T10:25:31;12.00;62.70
9544;DHT22;30418;51.45933468;7.33152330;2024-03-25T10:27:59;12.00;61.30
9544;DHT22;30418;51.45933468;7.33152330;2024-03-25T10:30:28;12.00;61.40
9544;DHT22;30418;51.45933468;7.33152330;2024-03-25T10:32:58;12.00;61.40
9544;DHT22;30418;51.45933468;7.33152330;2024-03-25T10:35:29;12.00;61.20
9544;DHT22;30418;51.45933468;7.33152330;2024-03-25T10:37:59;12.00;60.80
9544;DHT22;30418;51.45933468;7.33152330;2024-03-25T10:40:29;12.00;60.80
9544;DHT22;30418;51.45933468;7.33152330;2024-03-25T10:43:01;12.00;60.80
9544;DHT22;30418;51.45933468;7.33152330;2024-03-25T10:45:30;12.10;60.80
9544;DHT22;30418;51.45933468;7.33152330;2024-03-25T10:48:03;12.10;60.90
9544;DHT22;30418;51.45933468;7.33152330;2024-03-25T10:50:35;12.20;61.00
9544;DHT22;30418;51.45933468;7.33152330;2024-03-25T10:53:04;12.20;61.20
9544;DHT22;30418;51.45933468;7.33152330;2024-03-25T10:55:35;12.30;61.10
9544;DHT22;30418;51.45933468;7.33152330;2024-03-25T10:58:04;12.30;60.50
9544;DHT22;30418;51.45933468;7.33152330;2024-03-25T11:00:31;12.40;60.80
9544;DHT22;30418;51.45933468;7.33152330;2024-03-25T11:02:59;12.50;60.80
9544;DHT22;30418;51.45933468;7.33152330;2024-03-25T11:05:26;12.50;61.30
9544;DHT22;30418;51.45933468;7.33152330;2024-03-25T11:07:53;12.60;60.40
9544;DHT22;30418;51.45933468;7.33152330;2024-03-25T11:10:29;12.60;60.00
9544;DHT22;30418;51.45933468;7.33152330;2024-03-25T11:12:57;12.70;59.50
9544;DHT22;30418;51.45933468;7.33152330;2024-03-25T11:15:24;12.70;60.40
9544;DHT22;30418;51.45933468;7.33152330;2024-03-25T11:17:51;12.70;59.70
9544;DHT22;30418;51.45933468;7.33152330;2024-03-25T11:20:18;12.80;59.70
9544;DHT22;30418;51.45933468;7.33152330;2024-03-25T11:22:48;12.80;59.70
9544;DHT22;30418;51.45933468;7.33152330;2024-03-25T11:25:16;12.80;59.30
9544;DHT22;30418;51.45933468;7.33152330;2024-03-25T11:27:44;12.90;59.60
9544;DHT22;30418;51.45933468;7.33152330;2024-03-25T11:30:13;13.00;59.50
9544;DHT22;30418;51.45933468;7.33152330;2024-03-25T11:32:45;13.00;59.30
9544;DHT22;30418;51.45933468;7.33152330;2024-03-25T11:35:14;13.10;59.20
9544;DHT22;30418;51.45933468;7.33152330;2024-03-25T11:37:41;13.20;59.30
9544;DHT22;30418;51.45933468;7.33152330;2024-03-25T11:40:09;13.20;59.10
9544;DHT22;30418;51.45933468;7.33152330;2024-03-25T11:42:38;13.20;59.00
9544;DHT22;30418;51.45933468;7.33152330;2024-03-25T11:45:05;13.30;58.80
9544;DHT22;30418;51.45933468;7.33152330;2024-03-25T11:47:34;13.30;58.50
9544;DHT22;30418;51.45933468;7.33152330;2024-03-25T11:50:07;13.30;58.30
9544;DHT22;30418;51.45933468;7.33152330;2024-03-25T11:52:35;13.30;58.10
9544;DHT22;30418;51.45933468;7.33152330;2024-03-25T11:55:02;13.30;58.90
9544;DHT22;30418;51.45933468;7.33152330;2024-03-25T11:57:30;13.30;57.80
9544;DHT22;30418;51.45933468;7.33152330;2024-03-25T11:59:58;13.30;57.60
9544;DHT22;30418;51.45933468;7.33152330;2024-03-25T12:02:25;13.20;57.40
9544;DHT22;30418;51.45933468;7.33152330;2024-03-25T12:04:53;13.20;57.40
9544;DHT22;30418;51.45933468;7.33152330;2024-03-25T12:07:20;13.20;57.40
9544;DHT22;30418;51.45933468;7.33152330;2024-03-25T12:09:47;13.20;57.50
9544;DHT22;30418;51.45933468;7.33152330;2024-03-25T12:12:33;13.20;57.60
9544;DHT22;30418;51.45933468;7.33152330;2024-03-25T12:15:01;13.20;57.70
9544;DHT22;30418;51.45933468;7.33152330;2024-03-25T12:17:29;13.20;57.60
9544;DHT22;30418;51.45933468;7.33152330;2024-03-25T12:20:02;13.20;57.50
9544;DHT22;30418;51.45933468;7.33152330;2024-03-25T12:22:30;13.30;57.00
9544;DHT22;30418;51.45933468;7.33152330;2024-03-25T12:24:59;13.30;57.20
9544;DHT22;30418;51.45933468;7.33152330;2024-03-25T12:27:27;13.30;57.20
9544;DHT22;30418;51.45933468;7.33152330;2024-03-25T12:29:59;13.30;57.10
9544;DHT22;30418;51.45933468;7.33152330;2024-03-25T12:32:36;13.40;57.00
9544;DHT22;30418;51.45933468;7.33152330;2024-03-25T12:35:07;13.40;56.90
9544;DHT22;30418;51.45933468;7.33152330;2024-03-25T12:37:35;13.50;56.90
9544;DHT22;30418;51.45933468;7.33152330;2024-03-25T12:40:05;13.50;57.00
9544;DHT22;30418;51.45933468;7.33152330;2024-03-25T12:42:32;13.60;57.20
9544;DHT22;30418;51.45933468;7.33152330;2024-03-25T12:44:59;13.60;57.10
9544;DHT22;30418;51.45933468;7.33152330;2024-03-25T12:47:26;13.60;57.00
9544;DHT22;30418;51.45933468;7.33152330;2024-03-25T12:49:53;13.70;56.90
9544;DHT22;30418;51.45933468;7.33152330;2024-03-25T12:52:21;13.70;56.80
9544;DHT22;30418;51.45933468;7.33152330;2024-03-25T12:54:48;13.70;56.60
9544;DHT22;30418;51.45933468;7.33152330;2024-03-25T12:57:15;13.70;56.20
9544;DHT22;30418;51.45933468;7.33152330;2024-03-25T12:59:42;13.70;56.10
9544;DHT22;30418;51.45933468;7.33152330;2024-03-25T13:02:11;13.70;55.90
9544;DHT22;30418;51.45933468;7.33152330;2024-03-25T13:04:38;13.80;55.80
9544;DHT22;30418;51.45933468;7.33152330;2024-03-25T13:07:06;13.80;55.80
9544;DHT22;30418;51.45933468;7.33152330;2024-03-25T13:09:33;13.80;55.90
9544;DHT22;30418;51.45933468;7.33152330;2024-03-25T13:12:00;13.90;55.90
9544;DHT22;30418;51.45933468;7.33152330;2024-03-25T13:14:27;13.90;55.90
9544;DHT22;30418;51.45933468;7.33152330;2024-03-25T13:16:54;13.90;55.90
9544;DHT22;30418;51.45933468;7.33152330;2024-03-25T13:19:21;13.90;56.00
9544;DHT22;30418;51.45933468;7.33152330;2024-03-25T13:21:48;13.90;55.80
9544;DHT22;30418;51.45933468;7.33152330;2024-03-25T13:24:15;14.00;55.80
9544;DHT22;30418;51.45933468;7.33152330;2024-03-25T13:26:43;14.00;55.30
9544;DHT22;30418;51.45933468;7.33152330;2024-03-25T13:29:10;14.00;55.30
9544;DHT22;30418;51.45933468;7.33152330;2024-03-25T13:31:37;14.00;55.30
9544;DHT22;30418;51.45933468;7.33152330;2024-03-25T13:34:04;14.00;55.10
9544;DHT22;30418;51.45933468;7.33152330;2024-03-25T13:36:31;14.00;55.30
9544;DHT22;30418;51.45933468;7.33152330;2024-03-25T13:38:58;14.00;55.30
9544;DHT22;30418;51.45933468;7.33152330;2024-03-25T13:41:25;14.10;55.10
9544;DHT22;30418;51.45933468;7.33152330;2024-03-25T13:43:53;14.00;55.10
9544;DHT22;30418;51.45933468;7.33152330;2024-03-25T13:46:20;14.10;55.10